D/T METAR WX W/DIR W/SPE G/SPE TEMP DEWP
16/01/19 03:20 EGBB 160320Z 20009KT 170V230 6000 -RA OVC007 08/07 Q1007 -RA SSW (200°) 10.4mph 8°C 7°C
16/01/19 02:50 EGBB 160250Z 20008KT 160V250 9999 BKN010 08/07 Q1007 SSW (200°) 9.2mph 8°C 7°C
16/01/19 02:20 EGBB 160220Z 21008KT 160V240 9999 BKN010 08/07 Q1008 SSW (210°) 9.2mph 8°C 7°C
16/01/19 01:50 EGBB 160150Z 21008KT 170V250 9999 OVC009 08/06 Q1008 SSW (210°) 9.2mph 8°C 6°C
16/01/19 01:20 EGBB 160120Z 20008KT 160V240 9999 OVC010 08/06 Q1009 SSW (200°) 9.2mph 8°C 6°C
16/01/19 00:50 EGBB 160050Z 21009KT 170V260 9999 OVC009 08/06 Q1009 SSW (210°) 10.4mph 8°C 6°C
16/01/19 00:20 EGBB 160020Z 22009KT 9999 OVC009 08/06 Q1010 SW (220°) 10.4mph 8°C 6°C
15/01/19 23:50 EGBB 152350Z 21008KT 180V250 9999 OVC010 08/06 Q1010 SSW (210°) 9.2mph 8°C 6°C
15/01/19 23:20 EGBB 152320Z 21009KT 170V250 9999 OVC010 08/06 Q1010 SSW (210°) 10.4mph 8°C 6°C
15/01/19 22:50 EGBB 152250Z 21009KT 9999 BKN010 08/06 Q1011 SSW (210°) 10.4mph 8°C 6°C
15/01/19 22:20 EGBB 152220Z 22010KT 9999 BKN010 08/07 Q1011 SW (220°) 11.5mph 8°C 7°C
15/01/19 21:50 EGBB 152150Z 22008KT 170V240 9999 BKN012 OVC021 08/07 Q1012 SW (220°) 9.2mph 8°C 7°C
15/01/19 21:20 EGBB 152120Z 22007KT 170V250 9999 FEW010 BKN023 08/06 Q1012 SW (220°) 8.1mph 8°C 6°C
15/01/19 20:50 EGBB 152050Z 21006KT 160V260 9999 BKN022 08/06 Q1012 SSW (210°) 6.9mph 8°C 6°C
15/01/19 20:20 EGBB 152020Z 23006KT 190V270 9999 BKN026 08/05 Q1013 SW (230°) 6.9mph 8°C 5°C
15/01/19 19:50 EGBB 151950Z 23006KT 170V270 9999 BKN025 09/05 Q1013 SW (230°) 6.9mph 9°C 5°C
15/01/19 19:20 EGBB 151920Z 23007KT 190V260 9999 BKN024 09/05 Q1013 SW (230°) 8.1mph 9°C 5°C
15/01/19 18:50 EGBB 151850Z 22008KT 170V250 9999 BKN030 09/05 Q1013 SW (220°) 9.2mph 9°C 5°C
15/01/19 18:20 EGBB 151820Z 22008KT 170V240 9999 BKN031 09/05 Q1014 SW (220°) 9.2mph 9°C 5°C
15/01/19 17:50 EGBB 151750Z 22007KT 9999 BKN030 09/05 Q1014 SW (220°) 8.1mph 9°C 5°C
15/01/19 17:20 EGBB 151720Z 22006KT 180V250 9999 BKN034 09/05 Q1014 SW (220°) 6.9mph 9°C 5°C
15/01/19 16:50 EGBB 151650Z 23007KT 190V250 9999 SCT035 09/05 Q1014 SW (230°) 8.1mph 9°C 5°C
15/01/19 16:20 EGBB 151620Z 21005KT 180V250 9999 BKN032 09/06 Q1015 SSW (210°) 5.8mph 9°C 6°C
15/01/19 15:50 EGBB 151550Z 23008KT 9999 FEW025 BKN032 09/06 Q1015 SW (230°) 9.2mph 9°C 6°C
15/01/19 15:20 EGBB 151520Z 23009KT 9999 BKN025 09/06 Q1015 SW (230°) 10.4mph 9°C 6°C
15/01/19 14:50 EGBB 151450Z 23008KT 200V260 9999 BKN028 09/05 Q1015 SW (230°) 9.2mph 9°C 5°C
15/01/19 14:20 EGBB 151420Z 23007KT 190V260 9999 BKN028 09/06 Q1016 SW (230°) 8.1mph 9°C 6°C
15/01/19 13:50 EGBB 151350Z 22008KT 9999 SCT032 BKN036 09/06 Q1016 SW (220°) 9.2mph 9°C 6°C
15/01/19 13:20 EGBB 151320Z 23008KT 200V270 9999 SCT034 SCT038 09/06 Q1016 SW (230°) 9.2mph 9°C 6°C
15/01/19 12:50 EGBB 151250Z 23007KT 9999 FEW015 BKN038 09/06 Q1017 SW (230°) 8.1mph 9°C 6°C
15/01/19 12:20 EGBB 151220Z 23007KT 190V260 9999 SCT038 08/06 Q1017 SW (230°) 8.1mph 8°C 6°C
15/01/19 11:50 EGBB 151150Z 24007KT 200V270 9999 FEW020 SCT034 08/06 Q1018 WSW (240°) 8.1mph 8°C 6°C
15/01/19 11:20 EGBB 151120Z 26007KT 9999 SCT028 SCT034 08/06 Q1018 W (260°) 8.1mph 8°C 6°C
15/01/19 10:50 EGBB 151050Z 22007KT 9999 FEW014 SCT036 07/06 Q1018 SW (220°) 8.1mph 7°C 6°C
15/01/19 10:20 EGBB 151020Z 22006KT 180V250 9999 SCT038 07/05 Q1018 SW (220°) 6.9mph 7°C 5°C
15/01/19 09:50 EGBB 150950Z 21006KT 180V250 9999 BKN040 07/05 Q1018 SSW (210°) 6.9mph 7°C 5°C
15/01/19 09:20 EGBB 150920Z 22008KT 9999 FEW016 BKN038 07/05 Q1019 SW (220°) 9.2mph 7°C 5°C
15/01/19 08:50 EGBB 150850Z 21006KT 9999 FEW020 BKN037 06/05 Q1019 RESHRA SSW (210°) 6.9mph 6°C 5°C
15/01/19 08:20 EGBB 150820Z 23008KT 9999 6000W SHRA SCT026 BKN036 06/05 Q1019 SHRA SW (230°) 9.2mph 6°C 5°C
15/01/19 07:50 EGBB 150750Z 21005KT 170V250 9999 SCT026 BKN038 06/05 Q1019 SSW (210°) 5.8mph 6°C 5°C
15/01/19 07:20 EGBB 150720Z 22007KT 9999 SCT034 06/04 Q1019 SW (220°) 8.1mph 6°C 4°C
15/01/19 06:50 EGBB 150650Z 22006KT 180V250 9999 BKN038 06/04 Q1019 SW (220°) 6.9mph 6°C 4°C
15/01/19 05:50 EGBB 150550Z 22009KT 9999 BKN032 05/04 Q1019 SW (220°) 10.4mph 5°C 4°C
15/01/19 05:20 EGBB 150520Z 23007KT 9999 OVC034 05/04 Q1019 SW (230°) 8.1mph 5°C 4°C
15/01/19 04:50 EGBB 150450Z 23007KT 190V250 9999 SCT027 OVC032 05/03 Q1019 SW (230°) 8.1mph 5°C 3°C
15/01/19 04:20 EGBB 150420Z 22008KT 190V250 9999 BKN026 OVC031 05/04 Q1020 SW (220°) 9.2mph 5°C 4°C
15/01/19 03:50 EGBB 150350Z 23007KT 210V270 9999 BKN025 OVC030 05/03 Q1020 SW (230°) 8.1mph 5°C 3°C
15/01/19 03:20 EGBB 150320Z 24007KT 9999 SCT024 OVC030 05/03 Q1020 WSW (240°) 8.1mph 5°C 3°C
15/01/19 02:50 EGBB 150250Z 25007KT 9999 BKN029 05/03 Q1020 WSW (250°) 8.1mph 5°C 3°C
15/01/19 02:20 EGBB 150220Z 26010KT CAVOK 05/03 Q1020 W (260°) 11.5mph 5°C 3°C
15/01/19 01:50 EGBB 150150Z 26007KT CAVOK 04/02 Q1021 W (260°) 8.1mph 4°C 2°C
15/01/19 01:20 EGBB 150120Z 25007KT CAVOK 04/02 Q1021 WSW (250°) 8.1mph 4°C 2°C
15/01/19 00:50 EGBB 150050Z 25007KT 210V270 CAVOK 04/02 Q1021 WSW (250°) 8.1mph 4°C 2°C
15/01/19 00:20 EGBB 150020Z 22006KT 9999 SCT039 04/02 Q1022 SW (220°) 6.9mph 4°C 2°C
14/01/19 23:50 EGBB 142350Z 23006KT 9999 FEW045 04/02 Q1022 SW (230°) 6.9mph 4°C 2°C
14/01/19 23:20 EGBB 142320Z 25005KT 220V280 CAVOK 05/02 Q1022 WSW (250°) 5.8mph 5°C 2°C
14/01/19 22:50 EGBB 142250Z 25004KT CAVOK 05/02 Q1022 WSW (250°) 4.6mph 5°C 2°C
14/01/19 22:20 EGBB 142220Z 24004KT CAVOK 05/02 Q1022 WSW (240°) 4.6mph 5°C 2°C
14/01/19 21:50 EGBB 142150Z 26005KT CAVOK 05/02 Q1022 W (260°) 5.8mph 5°C 2°C
14/01/19 21:20 EGBB 142120Z 26006KT CAVOK 05/03 Q1022 W (260°) 6.9mph 5°C 3°C
14/01/19 20:50 EGBB 142050Z 26006KT CAVOK 06/03 Q1022 W (260°) 6.9mph 6°C 3°C
14/01/19 20:20 EGBB 142020Z 26006KT CAVOK 06/03 Q1022 W (260°) 6.9mph 6°C 3°C
14/01/19 19:50 EGBB 141950Z 25005KT 9999 FEW040 06/03 Q1022 WSW (250°) 5.8mph 6°C 3°C
14/01/19 19:20 EGBB 141920Z 25004KT 9999 SCT043 06/03 Q1022 WSW (250°) 4.6mph 6°C 3°C
14/01/19 18:50 EGBB 141850Z VRB03KT 9999 BKN044 07/03 Q1022 N (0°) 3.5mph 7°C 3°C
14/01/19 18:20 EGBB 141820Z 27003KT 9999 BKN044 07/04 Q1022 W (270°) 3.5mph 7°C 4°C
14/01/19 17:50 EGBB 141750Z 31006KT 9999 FEW028 SCT048 07/04 Q1022 NW (310°) 6.9mph 7°C 4°C
14/01/19 17:20 EGBB 141720Z 30005KT 9999 -DZ SCT026 BKN038 07/04 Q1022 -DZ WNW (300°) 5.8mph 7°C 4°C
14/01/19 16:20 EGBB 141620Z 32006KT 9999 SCT030 BKN048 08/03 Q1022 NW (320°) 6.9mph 8°C 3°C
14/01/19 15:50 EGBB 141550Z 31010KT 9999 SCT035 BKN040 08/03 Q1022 NW (310°) 11.5mph 8°C 3°C
14/01/19 15:20 EGBB 141520Z 31007KT 9999 SCT030 BKN048 08/04 Q1022 NW (310°) 8.1mph 8°C 4°C
14/01/19 14:50 EGBB 141450Z 30007KT 9999 VCSH SCT024 BKN049 08/04 Q1022 VCSH WNW (300°) 8.1mph 8°C 4°C
14/01/19 14:20 EGBB 141420Z 33009KT 9999 VCSH SCT027 BKN042 07/04 Q1021 VCSH NNW (330°) 10.4mph 7°C 4°C
14/01/19 13:50 EGBB 141350Z 30008KT 9999 -RA SCT023 BKN032 08/03 Q1021 -RA WNW (300°) 9.2mph 8°C 3°C
14/01/19 13:20 EGBB 141320Z 31007KT 9999 SCT025 BKN045 08/03 Q1021 NW (310°) 8.1mph 8°C 3°C
14/01/19 12:50 EGBB 141250Z 32010KT 9999 VCSH SCT025 BKN040 08/04 Q1022 VCSH NW (320°) 11.5mph 8°C 4°C
14/01/19 11:50 EGBB 141150Z 31009KT 9999 -SHRA SCT024 SCT035 08/03 Q1021 -SHRA NW (310°) 10.4mph 8°C 3°C
14/01/19 11:20 EGBB 141120Z 31011KT 9999 VCSH SCT021 SCT042 08/03 Q1021 VCSH NW (310°) 12.7mph 8°C 3°C
14/01/19 10:50 EGBB 141050Z 32012KT 9999 SCT020 SCT038 08/03 Q1021 NW (320°) 13.8mph 8°C 3°C
14/01/19 10:20 EGBB 141020Z 32011KT 9999 SCT022 SCT036 08/04 Q1021 NW (320°) 12.7mph 8°C 4°C
14/01/19 09:50 EGBB 140950Z 32010KT 9999 SCT026 07/04 Q1021 NW (320°) 11.5mph 7°C 4°C
14/01/19 09:20 EGBB 140920Z 31010KT 9999 FEW018 SCT036 07/04 Q1020 NW (310°) 11.5mph 7°C 4°C
14/01/19 08:50 EGBB 140850Z 31010KT 9999 FEW017 SCT042 07/04 Q1020 NW (310°) 11.5mph 7°C 4°C
14/01/19 08:20 EGBB 140820Z 31012KT 9999 BKN020 07/04 Q1020 NW (310°) 13.8mph 7°C 4°C
14/01/19 07:50 EGBB 140750Z 31011KT 9999 SCT020 07/04 Q1019 NW (310°) 12.7mph 7°C 4°C
14/01/19 07:20 EGBB 140720Z 31011KT 9999 SCT021 07/04 Q1019 NW (310°) 12.7mph 7°C 4°C
14/01/19 06:50 EGBB 140650Z 31012KT 9999 SCT020 07/04 Q1019 NW (310°) 13.8mph 7°C 4°C
14/01/19 06:20 EGBB 140620Z 32012KT 9999 SCT019 07/04 Q1018 NW (320°) 13.8mph 7°C 4°C
14/01/19 05:50 EGBB 140550Z 32013KT 9999 FEW017 BKN023 07/04 Q1018 NW (320°) 15.0mph 7°C 4°C
14/01/19 05:20 EGBB 140520Z 31013KT 9999 FEW012 BKN017 07/04 Q1018 NW (310°) 15.0mph 7°C 4°C
14/01/19 04:50 EGBB 140450Z 31012KT 9999 BKN020 07/04 Q1018 NW (310°) 13.8mph 7°C 4°C
14/01/19 04:20 EGBB 140420Z 32014KT 9999 BKN022 08/03 Q1017 NW (320°) 16.1mph 8°C 3°C
14/01/19 03:50 EGBB 140350Z 31013KT 9999 FEW025 BKN030 08/03 Q1017 NW (310°) 15.0mph 8°C 3°C
14/01/19 03:20 EGBB 140320Z 31014KT 9999 SCT027 08/03 Q1017 NW (310°) 16.1mph 8°C 3°C
14/01/19 02:50 EGBB 140250Z 31014KT 9999 BKN025 08/03 Q1017 NW (310°) 16.1mph 8°C 3°C
14/01/19 02:20 EGBB 140220Z 31014KT 9999 SCT024 OVC036 08/03 Q1016 NW (310°) 16.1mph 8°C 3°C
14/01/19 01:20 EGBB 140120Z 30012KT 9999 BKN029 OVC040 08/03 Q1015 WNW (300°) 13.8mph 8°C 3°C
14/01/19 00:50 EGBB 140050Z 31015KT 9999 BKN033 08/03 Q1015 NW (310°) 17.3mph 8°C 3°C
14/01/19 00:20 EGBB 140020Z 31014KT 9999 BKN030 08/03 Q1015 NW (310°) 16.1mph 8°C 3°C
13/01/19 23:50 EGBB 132350Z 31015KT 9999 BKN027 08/03 Q1015 NW (310°) 17.3mph 8°C 3°C
13/01/19 23:20 EGBB 132320Z 32013KT 9999 BKN028 08/03 Q1015 NW (320°) 15.0mph 8°C 3°C
13/01/19 22:50 EGBB 132250Z 31012KT 9999 BKN030 09/02 Q1015 NW (310°) 13.8mph 9°C 2°C
13/01/19 22:20 EGBB 132220Z 31015KT 9999 BKN030 09/02 Q1014 NW (310°) 17.3mph 9°C 2°C
13/01/19 21:50 EGBB 132150Z 31016KT 9999 BKN032 09/03 Q1014 NW (310°) 18.4mph 9°C 3°C
13/01/19 21:20 EGBB 132120Z 31015KT 9999 BKN040 09/03 Q1014 NW (310°) 17.3mph 9°C 3°C
13/01/19 20:50 EGBB 132050Z 31016KT 9999 BKN030 09/04 Q1014 NW (310°) 18.4mph 9°C 4°C
13/01/19 20:20 EGBB 132020Z 31013KT 9999 SCT030 09/03 Q1013 NW (310°) 15.0mph 9°C 3°C
13/01/19 19:50 EGBB 131950Z 32013KT 9999 FEW036 09/02 Q1013 NW (320°) 15.0mph 9°C 2°C
13/01/19 19:20 EGBB 131920Z 32013KT 9999 FEW030 09/03 Q1013 NW (320°) 15.0mph 9°C 3°C
13/01/19 18:20 EGBB 131820Z 32018G28KT 9999 SCT031 09/04 Q1012 NW (320°) 20.7mph 32.2mph 9°C 4°C
13/01/19 17:50 EGBB 131750Z 31024G37KT 280V340 9999 FEW031 11/03 Q1011 NW (310°) 27.6mph 42.6mph 11°C 3°C
13/01/19 17:20 EGBB 131720Z 31020G31KT 9999 SCT032 11/04 Q1010 NW (310°) 23.0mph 35.7mph 11°C 4°C
13/01/19 16:50 EGBB 131650Z 30015G26KT 9999 FEW036 BKN046 11/05 Q1010 WNW (300°) 17.3mph 29.9mph 11°C 5°C
13/01/19 16:20 EGBB 131620Z 29012KT 9999 FEW035 11/05 Q1010 WNW (290°) 13.8mph 11°C 5°C
13/01/19 15:50 EGBB 131550Z 31015G32KT 9999 SCT034 12/05 Q1010 NW (310°) 17.3mph 36.8mph 12°C 5°C
13/01/19 15:20 EGBB 131520Z 31014G25KT 270V330 9999 SCT037 12/06 Q1010 NW (310°) 16.1mph 28.8mph 12°C 6°C
13/01/19 14:50 EGBB 131450Z 30007KT 250V330 9999 BKN024 12/08 Q1010 WNW (300°) 8.1mph 12°C 8°C
13/01/19 14:20 EGBB 131420Z 28007KT 250V310 9999 BKN020 11/08 Q1010 W (280°) 8.1mph 11°C 8°C
13/01/19 13:50 EGBB 131350Z 28009KT 9999 BKN018 11/08 Q1011 W (280°) 10.4mph 11°C 8°C
13/01/19 13:20 EGBB 131320Z 29012KT 9999 BKN016 11/08 Q1011 WNW (290°) 13.8mph 11°C 8°C
13/01/19 12:50 EGBB 131250Z 27012KT 9999 BKN017 11/08 Q1011 W (270°) 13.8mph 11°C 8°C
13/01/19 12:20 EGBB 131220Z 27010KT 240V300 9999 BKN018 11/08 Q1011 W (270°) 11.5mph 11°C 8°C
13/01/19 11:50 EGBB 131150Z 28010KT 250V310 9999 BKN017 11/08 Q1012 W (280°) 11.5mph 11°C 8°C
13/01/19 11:20 EGBB 131120Z 27012KT 9999 BKN017 11/08 Q1012 W (270°) 13.8mph 11°C 8°C
13/01/19 10:50 EGBB 131050Z 27011KT 9999 BKN017 10/07 Q1013 W (270°) 12.7mph 10°C 7°C
13/01/19 10:20 EGBB 131020Z 25009KT 220V280 9999 BKN018 10/07 Q1013 WSW (250°) 10.4mph 10°C 7°C
13/01/19 09:50 EGBB 130950Z 24010KT 210V280 9999 VCSH OVC019 10/06 Q1013 VCSH WSW (240°) 11.5mph 10°C 6°C
13/01/19 09:20 EGBB 130920Z 26010KT 9999 BKN021 10/06 Q1014 W (260°) 11.5mph 10°C 6°C
13/01/19 08:20 EGBB 130820Z 26010KT 230V290 9999 SCT029 09/06 Q1014 W (260°) 11.5mph 9°C 6°C
13/01/19 07:50 EGBB 130750Z 27010KT 9999 SCT028 09/06 Q1014 W (270°) 11.5mph 9°C 6°C
13/01/19 07:20 EGBB 130720Z 27010KT 230V300 9999 BKN036 10/06 Q1015 W (270°) 11.5mph 10°C 6°C
13/01/19 06:50 EGBB 130650Z 27010KT 9999 BKN038 10/06 Q1015 W (270°) 11.5mph 10°C 6°C
13/01/19 06:20 EGBB 130620Z 28012KT 9999 BKN034 10/06 Q1015 W (280°) 13.8mph 10°C 6°C
13/01/19 05:50 EGBB 130550Z 27011KT 250V310 9999 BKN032 10/07 Q1015 W (270°) 12.7mph 10°C 7°C
13/01/19 05:20 EGBB 130520Z 28012KT 9999 FEW017 10/07 Q1015 W (280°) 13.8mph 10°C 7°C
13/01/19 04:50 EGBB 130450Z 29015KT 9999 FEW018 10/07 Q1016 WNW (290°) 17.3mph 10°C 7°C
13/01/19 04:20 EGBB 130420Z 28013KT 9999 FEW017 10/08 Q1015 W (280°) 15.0mph 10°C 8°C
13/01/19 03:50 EGBB 130350Z 28011KT 9999 SCT017 10/08 Q1016 W (280°) 12.7mph 10°C 8°C
13/01/19 03:20 EGBB 130320Z 29010KT 250V310 9999 SCT017 10/08 Q1016 WNW (290°) 11.5mph 10°C 8°C
13/01/19 02:50 EGBB 130250Z 28008KT 240V310 9999 SCT017 10/07 Q1016 W (280°) 9.2mph 10°C 7°C
13/01/19 02:20 EGBB 130220Z 29009KT 250V310 9999 SCT019 OVC024 11/07 Q1017 WNW (290°) 10.4mph 11°C 7°C
13/01/19 01:50 EGBB 130150Z 29010KT 9999 OVC024 11/07 Q1017 WNW (290°) 11.5mph 11°C 7°C
13/01/19 01:20 EGBB 130120Z 29010KT 9999 BKN019 11/07 Q1017 WNW (290°) 11.5mph 11°C 7°C
13/01/19 00:50 EGBB 130050Z 30011KT 9999 OVC019 11/07 Q1018 WNW (300°) 12.7mph 11°C 7°C